createdAt,value
2018-02-19T00:00:10.502Z,-0.40
2018-02-19T00:02:37.966Z,-0.50
2018-02-19T00:05:05.428Z,-0.60
2018-02-19T00:07:32.883Z,-0.70
2018-02-19T00:10:00.348Z,-0.70
2018-02-19T00:12:27.895Z,-0.80
2018-02-19T00:14:55.359Z,-0.90
2018-02-19T00:17:23.744Z,-0.80
2018-02-19T00:19:51.291Z,-0.80
2018-02-19T00:22:18.735Z,-0.80
2018-02-19T00:24:46.201Z,-0.70
2018-02-19T00:27:13.764Z,-0.80
2018-02-19T00:29:41.223Z,-0.70
2018-02-19T00:32:08.776Z,-0.70
2018-02-19T00:34:36.635Z,-0.60
2018-02-19T00:37:04.098Z,-0.60
2018-02-19T00:39:31.629Z,-0.60
2018-02-19T00:41:59.064Z,-0.60
2018-02-19T00:44:26.570Z,-0.50
2018-02-19T00:46:54.018Z,-0.50
2018-02-19T00:49:21.592Z,-0.50
2018-02-19T00:51:49.044Z,-0.60
2018-02-19T00:54:16.503Z,-0.60
2018-02-19T00:56:44.112Z,-0.70
2018-02-19T00:59:11.575Z,-0.70
2018-02-19T01:01:39.079Z,-0.70
2018-02-19T01:04:06.553Z,-0.70
2018-02-19T01:06:34.002Z,-0.70
2018-02-19T01:09:01.464Z,-0.70
2018-02-19T01:11:28.912Z,-0.80
2018-02-19T01:13:56.366Z,-0.80
2018-02-19T01:16:23.827Z,-0.80
2018-02-19T01:18:51.270Z,-0.80
2018-02-19T01:21:18.828Z,-0.80
2018-02-19T01:23:46.288Z,-0.80
2018-02-19T01:26:13.843Z,-0.90
2018-02-19T01:28:41.723Z,-0.90
2018-02-19T01:31:09.260Z,-0.90
2018-02-19T01:33:36.717Z,-0.90
2018-02-19T01:36:04.185Z,-0.90
2018-02-19T01:38:31.743Z,-0.90
2018-02-19T01:40:59.304Z,-0.90
2018-02-19T01:43:26.870Z,-1.00
2018-02-19T01:45:54.328Z,-0.90
2018-02-19T01:48:21.877Z,-0.80
2018-02-19T01:50:49.338Z,-0.70
2018-02-19T01:53:17.407Z,-0.70
2018-02-19T01:55:44.962Z,-0.60
2018-02-19T01:58:12.407Z,-0.50
2018-02-19T02:00:39.867Z,-0.50
2018-02-19T02:03:07.320Z,-0.40
2018-02-19T02:05:35.043Z,-0.50
2018-02-19T02:08:03.265Z,-0.50
2018-02-19T02:10:30.719Z,-0.50
2018-02-19T02:12:58.639Z,-0.50
2018-02-19T02:15:26.950Z,-0.60
2018-02-19T02:17:54.386Z,-0.60
2018-02-19T02:20:21.896Z,-0.60
2018-02-19T02:22:49.444Z,-0.50
2018-02-19T02:25:17.536Z,-0.40
2018-02-19T02:27:44.990Z,-0.40
2018-02-19T02:30:12.634Z,-0.40
2018-02-19T02:32:40.079Z,-0.30
2018-02-19T02:35:07.538Z,-0.30
2018-02-19T02:37:34.995Z,-0.20
2018-02-19T02:40:02.455Z,-0.20
2018-02-19T02:42:29.907Z,-0.20
2018-02-19T02:44:57.579Z,-0.20
2018-02-19T02:47:25.144Z,-0.20
2018-02-19T02:49:52.600Z,-0.20
2018-02-19T02:52:20.150Z,-0.20
2018-02-19T02:54:47.632Z,-0.20
2018-02-19T02:57:15.171Z,-0.20
2018-02-19T02:59:42.729Z,-0.20
2018-02-19T03:02:10.186Z,-0.20
2018-02-19T03:04:37.643Z,-0.20
2018-02-19T03:07:05.175Z,-0.40
2018-02-19T03:09:33.051Z,-0.40
2018-02-19T03:12:00.530Z,-0.40
2018-02-19T03:14:27.964Z,-0.50
2018-02-19T03:16:55.414Z,-0.50
2018-02-19T03:19:22.871Z,-0.50
2018-02-19T03:21:50.350Z,-0.40
2018-02-19T03:24:17.800Z,-0.40
2018-02-19T03:26:45.265Z,-0.40
2018-02-19T03:29:12.823Z,-0.30
2018-02-19T03:31:40.279Z,-0.30
2018-02-19T03:34:07.730Z,-0.30
2018-02-19T03:36:35.191Z,-0.30
2018-02-19T03:39:02.760Z,-0.30
2018-02-19T03:41:30.219Z,-0.40
2018-02-19T03:43:57.772Z,-0.50
2018-02-19T03:46:25.230Z,-0.50
2018-02-19T03:48:52.684Z,-0.50
2018-02-19T03:51:20.145Z,-0.50
2018-02-19T03:53:47.694Z,-0.50
2018-02-19T03:56:15.268Z,-0.50
2018-02-19T03:58:42.811Z,-0.40
2018-02-19T04:01:10.267Z,-0.40
2018-02-19T04:03:37.720Z,-0.40
2018-02-19T04:06:05.187Z,-0.30
2018-02-19T04:08:32.643Z,-0.30
2018-02-19T04:11:00.522Z,-0.20
2018-02-19T04:13:28.072Z,-0.20
2018-02-19T04:15:55.526Z,-0.10
2018-02-19T04:18:23.087Z,-0.10
2018-02-19T04:20:50.643Z,-0.10
2018-02-19T04:23:18.089Z,0.00
2018-02-19T04:25:45.543Z,0.00
2018-02-19T04:28:12.991Z,0.00
2018-02-19T04:30:40.446Z,-0.10
2018-02-19T04:33:07.928Z,-0.10
2018-02-19T04:35:35.490Z,-0.10
2018-02-19T04:38:02.940Z,0.00
2018-02-19T04:40:30.400Z,0.00
2018-02-19T04:42:59.424Z,0.00
2018-02-19T04:45:31.211Z,0.00
2018-02-19T04:47:58.660Z,0.00
2018-02-19T04:50:26.163Z,0.00
2018-02-19T04:52:53.619Z,-0.10
2018-02-19T04:55:21.083Z,-0.30
2018-02-19T04:57:48.540Z,-0.40
2018-02-19T05:00:16.031Z,-0.40
2018-02-19T05:02:44.275Z,-0.50
2018-02-19T05:05:11.732Z,-0.50
2018-02-19T05:07:39.194Z,-0.40
2018-02-19T05:10:06.646Z,-0.30
2018-02-19T05:12:34.200Z,-0.30
2018-02-19T05:15:01.675Z,-0.30
2018-02-19T05:17:29.131Z,-0.30
2018-02-19T05:19:56.670Z,-0.30
2018-02-19T05:22:24.230Z,-0.40
2018-02-19T05:24:52.486Z,-0.50
2018-02-19T05:27:19.968Z,-0.50
2018-02-19T05:29:47.412Z,-0.50
2018-02-19T05:32:14.879Z,-0.40
2018-02-19T05:34:42.942Z,-0.30
2018-02-19T05:37:10.399Z,-0.30
2018-02-19T05:39:37.857Z,-0.20
2018-02-19T05:42:05.320Z,-0.20
2018-02-19T05:44:32.879Z,-0.10
2018-02-19T05:47:01.156Z,-0.10
2018-02-19T05:49:28.612Z,-0.10
2018-02-19T05:51:56.687Z,0.00
2018-02-19T05:54:24.231Z,0.00
2018-02-19T05:56:51.684Z,0.00
2018-02-19T05:59:19.438Z,0.00
2018-02-19T06:01:46.991Z,0.00
2018-02-19T06:04:14.466Z,0.00
2018-02-19T06:06:41.922Z,0.10
2018-02-19T06:09:09.374Z,0.10
2018-02-19T06:11:36.859Z,0.00
2018-02-19T06:14:04.304Z,0.00
2018-02-19T06:16:31.759Z,0.00
2018-02-19T06:18:59.210Z,0.00
2018-02-19T06:21:26.776Z,-0.10
2018-02-19T06:23:54.335Z,-0.10
2018-02-19T06:26:21.889Z,-0.20
2018-02-19T06:28:49.353Z,-0.30
2018-02-19T06:31:16.807Z,-0.30
2018-02-19T06:33:44.862Z,-0.30
2018-02-19T06:36:12.314Z,-0.20
2018-02-19T06:38:39.766Z,-0.10
2018-02-19T06:41:07.219Z,0.00
2018-02-19T06:43:35.038Z,0.00
2018-02-19T06:46:02.494Z,0.10
2018-02-19T06:48:29.944Z,0.00
2018-02-19T06:50:57.488Z,0.10
2018-02-19T06:53:24.938Z,0.10
2018-02-19T06:55:52.390Z,0.20
2018-02-19T06:58:19.846Z,0.20
2018-02-19T07:00:47.295Z,0.10
2018-02-19T07:03:14.763Z,0.10
2018-02-19T07:05:42.223Z,0.20
2018-02-19T07:08:09.787Z,0.20
2018-02-19T07:10:37.343Z,0.30
2018-02-19T07:13:04.804Z,0.30
2018-02-19T07:15:32.251Z,0.40
2018-02-19T07:17:59.812Z,0.40
2018-02-19T07:20:30.214Z,0.50
2018-02-19T07:22:57.694Z,0.50
2018-02-19T07:25:25.151Z,0.50
2018-02-19T07:27:52.607Z,0.60
2018-02-19T07:30:20.048Z,0.70
2018-02-19T07:32:47.934Z,0.80
2018-02-19T07:35:15.382Z,0.80
2018-02-19T07:37:42.843Z,0.90
2018-02-19T07:40:10.708Z,0.80
2018-02-19T07:42:38.268Z,0.90
2018-02-19T07:45:06.226Z,0.90
2018-02-19T07:47:33.696Z,1.00
2018-02-19T07:50:01.146Z,1.10
2018-02-19T07:52:28.652Z,1.00
2018-02-19T07:54:56.867Z,1.20
2018-02-19T07:57:24.726Z,1.20
2018-02-19T07:59:52.159Z,1.30
2018-02-19T08:02:19.615Z,1.40
2018-02-19T08:04:47.222Z,1.60
2018-02-19T08:07:14.683Z,1.70
2018-02-19T08:09:42.156Z,1.80
2018-02-19T08:12:09.616Z,1.90
2018-02-19T08:14:38.613Z,2.10
2018-02-19T08:17:06.148Z,2.10
2018-02-19T08:19:33.703Z,2.60
2018-02-19T08:22:01.178Z,2.90
2018-02-19T08:24:28.627Z,3.00
2018-02-19T08:26:56.094Z,3.20
2018-02-19T08:29:23.667Z,3.20
2018-02-19T08:31:51.900Z,3.40
2018-02-19T08:34:19.369Z,3.40
2018-02-19T08:36:46.926Z,3.60
2018-02-19T08:39:14.390Z,3.70
2018-02-19T08:41:42.443Z,4.00
2018-02-19T08:44:09.910Z,3.80
2018-02-19T08:46:37.367Z,3.80
2018-02-19T08:49:04.823Z,3.90
2018-02-19T08:51:32.384Z,3.90
2018-02-19T08:54:00.243Z,4.10
2018-02-19T08:56:27.704Z,3.90
2018-02-19T08:58:55.675Z,3.80
2018-02-19T09:01:23.127Z,3.90
2018-02-19T09:03:51.209Z,3.90
2018-02-19T09:06:18.862Z,3.70
2018-02-19T09:08:46.426Z,3.60
2018-02-19T09:11:14.311Z,3.70
2018-02-19T09:13:42.527Z,3.60
2018-02-19T09:16:10.023Z,3.60
2018-02-19T09:18:37.586Z,3.70
2018-02-19T09:21:05.035Z,3.70
2018-02-19T09:23:32.603Z,3.80
2018-02-19T09:26:00.052Z,4.10
2018-02-19T09:28:28.135Z,4.50
2018-02-19T09:30:55.782Z,4.80
2018-02-19T09:33:23.343Z,5.30
2018-02-19T09:35:50.877Z,5.50
2018-02-19T09:38:18.331Z,6.00
2018-02-19T09:40:45.918Z,6.50
2018-02-19T09:43:13.480Z,5.90
2018-02-19T09:45:40.922Z,6.10
2018-02-19T09:48:09.211Z,6.40
2018-02-19T09:50:36.659Z,7.10
2018-02-19T09:53:04.128Z,7.20
2018-02-19T09:55:31.583Z,7.70
2018-02-19T09:57:59.043Z,7.80
2018-02-19T10:00:26.492Z,7.80
2018-02-19T10:02:53.943Z,7.90
2018-02-19T10:05:21.411Z,7.90
2018-02-19T10:07:48.867Z,7.60
2018-02-19T10:10:16.321Z,7.20
2018-02-19T10:12:43.879Z,7.10
2018-02-19T10:15:11.339Z,7.00
2018-02-19T10:17:38.900Z,7.70
2018-02-19T10:20:06.347Z,8.10
2018-02-19T10:22:33.811Z,8.50
2018-02-19T10:25:01.272Z,8.70
2018-02-19T10:27:29.132Z,8.30
2018-02-19T10:29:56.678Z,8.10
2018-02-19T10:32:24.146Z,7.70
2018-02-19T10:34:51.602Z,7.90
2018-02-19T10:37:19.064Z,8.50
2018-02-19T10:39:46.514Z,8.50
2018-02-19T10:42:13.967Z,8.00
2018-02-19T10:44:41.478Z,7.40
2018-02-19T10:47:08.990Z,7.70
2018-02-19T10:49:36.446Z,7.80
2018-02-19T10:52:03.895Z,7.50
2018-02-19T10:54:31.363Z,7.10
2018-02-19T10:56:58.806Z,7.50
2018-02-19T10:59:26.263Z,7.50
2018-02-19T11:01:53.712Z,7.60
2018-02-19T11:04:21.188Z,7.30
2018-02-19T11:06:48.646Z,7.10
2018-02-19T11:09:16.103Z,7.20
2018-02-19T11:11:43.547Z,6.50
2018-02-19T11:14:10.994Z,6.70
2018-02-19T11:16:38.819Z,7.10
2018-02-19T11:19:07.054Z,7.00
2018-02-19T11:21:34.506Z,7.00
2018-02-19T11:24:02.760Z,6.60
2018-02-19T11:26:30.871Z,6.80
2018-02-19T11:28:58.623Z,6.80
2018-02-19T11:31:26.489Z,7.60
2018-02-19T11:33:53.952Z,7.10
2018-02-19T11:36:22.289Z,7.30
2018-02-19T11:38:55.379Z,7.30
2018-02-19T11:41:17.234Z,7.10
2018-02-19T11:43:44.698Z,6.70
2018-02-19T11:46:12.226Z,6.60
2018-02-19T11:48:39.704Z,6.70
2018-02-19T11:51:07.167Z,6.50
2018-02-19T11:53:34.723Z,6.90
2018-02-19T11:56:02.171Z,7.10
2018-02-19T11:58:29.632Z,7.50
2018-02-19T12:00:57.089Z,7.50
2018-02-19T12:03:24.543Z,7.90
2018-02-19T12:05:51.995Z,7.30
2018-02-19T12:08:19.443Z,6.60
2018-02-19T12:10:46.954Z,6.70
2018-02-19T12:13:14.482Z,7.30
2018-02-19T12:15:41.922Z,7.90
2018-02-19T12:18:09.379Z,7.20
2018-02-19T12:20:37.057Z,6.40
2018-02-19T12:23:04.621Z,7.00
2018-02-19T12:25:32.067Z,6.70
2018-02-19T12:27:59.524Z,7.00
2018-02-19T12:30:26.971Z,7.50
2018-02-19T12:32:54.444Z,7.80
2018-02-19T12:35:21.891Z,7.60
2018-02-19T12:37:49.343Z,7.50
2018-02-19T12:40:16.803Z,7.70
2018-02-19T12:42:44.272Z,8.30
2018-02-19T12:45:11.856Z,8.50
2018-02-19T12:47:40.326Z,8.50
2018-02-19T12:50:07.775Z,8.80
2018-02-19T12:52:35.228Z,8.90
2018-02-19T12:55:02.785Z,8.70
2018-02-19T12:57:30.318Z,8.60
2018-02-19T12:59:57.775Z,8.20
2018-02-19T13:02:25.227Z,7.70
2018-02-19T13:04:52.683Z,7.70
2018-02-19T13:07:20.130Z,7.30
2018-02-19T13:09:47.628Z,7.60
2018-02-19T13:12:15.579Z,7.80
2018-02-19T13:14:43.039Z,7.50
2018-02-19T13:17:10.487Z,7.60
2018-02-19T13:19:37.947Z,7.20
2018-02-19T13:22:05.392Z,7.80
2018-02-19T13:24:32.879Z,7.80
2018-02-19T13:27:00.435Z,7.60
2018-02-19T13:29:27.895Z,8.00
2018-02-19T13:31:55.343Z,7.70
2018-02-19T13:34:23.626Z,7.60
2018-02-19T13:36:51.075Z,6.80
2018-02-19T13:39:18.544Z,6.50
2018-02-19T13:41:46.106Z,6.60
2018-02-19T13:44:13.655Z,6.80
2018-02-19T13:46:41.109Z,6.30
2018-02-19T13:49:08.567Z,6.30
2018-02-19T13:51:36.108Z,6.40
2018-02-19T13:54:03.591Z,6.30
2018-02-19T13:56:31.036Z,6.20
2018-02-19T13:58:58.499Z,6.00
2018-02-19T14:01:25.954Z,6.30
2018-02-19T14:03:53.406Z,6.30
2018-02-19T14:06:20.971Z,6.50
2018-02-19T14:08:48.437Z,6.40
2018-02-19T14:11:15.888Z,6.20
2018-02-19T14:13:43.932Z,5.90
2018-02-19T14:16:11.389Z,5.70
2018-02-19T14:18:38.849Z,5.60
2018-02-19T14:21:06.330Z,5.50
2018-02-19T14:23:33.798Z,5.30
2018-02-19T14:26:01.251Z,5.10
2018-02-19T14:28:28.703Z,5.00
2018-02-19T14:30:56.158Z,5.10
2018-02-19T14:33:23.607Z,5.10
2018-02-19T14:35:51.167Z,5.30
2018-02-19T14:38:18.627Z,5.50
2018-02-19T14:40:46.190Z,5.60
2018-02-19T14:43:13.632Z,5.70
2018-02-19T14:45:41.094Z,5.50
2018-02-19T14:48:08.548Z,5.50
2018-02-19T14:50:36.015Z,5.40
2018-02-19T14:53:03.459Z,5.40
2018-02-19T14:55:31.547Z,5.50
2018-02-19T14:57:59.103Z,5.50
2018-02-19T15:00:26.659Z,5.50
2018-02-19T15:02:54.098Z,5.50
2018-02-19T15:05:21.559Z,5.50
2018-02-19T15:07:49.016Z,5.20
2018-02-19T15:10:16.478Z,4.90
2018-02-19T15:12:43.919Z,5.00
2018-02-19T15:15:11.384Z,5.00
2018-02-19T15:17:38.833Z,5.00
2018-02-19T15:20:06.292Z,5.10
2018-02-19T15:22:33.741Z,5.00
2018-02-19T15:25:01.199Z,4.90
2018-02-19T15:27:28.643Z,4.90
2018-02-19T15:29:56.138Z,4.90
2018-02-19T15:32:23.628Z,4.70
2018-02-19T15:34:51.851Z,4.50
2018-02-19T15:37:19.508Z,4.40
2018-02-19T15:39:46.990Z,4.20
2018-02-19T15:42:14.442Z,4.20
2018-02-19T15:44:41.899Z,4.30
2018-02-19T15:47:09.343Z,4.40
2018-02-19T15:49:36.894Z,4.30
2018-02-19T15:52:04.331Z,4.30
2018-02-19T15:54:31.783Z,4.20
2018-02-19T15:56:59.239Z,4.20
2018-02-19T15:59:26.694Z,4.20
2018-02-19T16:01:54.177Z,4.20
2018-02-19T16:04:22.379Z,4.10
2018-02-19T16:06:49.838Z,4.10
2018-02-19T16:09:17.391Z,4.00
2018-02-19T16:11:44.951Z,4.00
2018-02-19T16:14:12.428Z,3.90
2018-02-19T16:16:39.883Z,3.70
2018-02-19T16:19:07.339Z,3.70
2018-02-19T16:21:34.797Z,3.70
2018-02-19T16:24:02.795Z,3.60
2018-02-19T16:26:30.264Z,3.60
2018-02-19T16:28:57.742Z,3.70
2018-02-19T16:31:25.196Z,3.60
2018-02-19T16:33:52.656Z,3.50
2018-02-19T16:36:20.126Z,3.50
2018-02-19T16:38:47.579Z,3.40
2018-02-19T16:41:15.054Z,3.30
2018-02-19T16:43:42.507Z,3.30
2018-02-19T16:46:10.039Z,3.20
2018-02-19T16:48:37.474Z,3.20
2018-02-19T16:51:04.951Z,3.20
2018-02-19T16:53:32.391Z,3.10
2018-02-19T16:55:59.848Z,3.00
2018-02-19T16:58:27.342Z,2.90
2018-02-19T17:00:54.799Z,2.80
2018-02-19T17:03:23.076Z,2.70
2018-02-19T17:05:50.655Z,2.60
2018-02-19T17:08:18.620Z,2.40
2018-02-19T17:10:46.083Z,2.40
2018-02-19T17:13:13.587Z,2.30
2018-02-19T17:15:41.078Z,2.20
2018-02-19T17:18:08.951Z,2.10
2018-02-19T17:20:36.505Z,2.00
2018-02-19T17:23:03.959Z,1.90
2018-02-19T17:25:31.414Z,1.90
2018-02-19T17:27:58.862Z,1.80
2018-02-19T17:30:26.335Z,1.70
2018-02-19T17:32:53.788Z,1.60
2018-02-19T17:35:21.746Z,1.50
2018-02-19T17:37:49.206Z,1.50
2018-02-19T17:40:16.772Z,1.40
2018-02-19T17:42:44.207Z,1.40
2018-02-19T17:45:11.671Z,1.40
2018-02-19T17:47:39.123Z,1.40
2018-02-19T17:50:06.603Z,1.30
2018-02-19T17:52:34.051Z,1.30
2018-02-19T17:55:01.512Z,1.20
2018-02-19T17:57:28.955Z,1.10
2018-02-19T17:59:56.412Z,1.10
2018-02-19T18:02:23.879Z,1.00
2018-02-19T18:04:51.340Z,1.00
2018-02-19T18:07:18.795Z,0.90
2018-02-19T18:09:46.245Z,0.60
2018-02-19T18:12:13.699Z,0.50
2018-02-19T18:14:41.347Z,0.40
2018-02-19T18:17:08.827Z,0.30
2018-02-19T18:19:36.279Z,0.20
2018-02-19T18:22:03.751Z,0.10
2018-02-19T18:24:31.495Z,0.10
2018-02-19T18:26:59.783Z,0.30
2018-02-19T18:29:27.416Z,0.20
2018-02-19T18:31:54.900Z,0.20
2018-02-19T18:34:22.386Z,0.30
2018-02-19T18:36:49.916Z,0.30
2018-02-19T18:39:17.390Z,0.30
2018-02-19T18:41:44.855Z,0.30
2018-02-19T18:44:12.296Z,0.30
2018-02-19T18:46:40.519Z,0.50
2018-02-19T18:49:08.047Z,0.50
2018-02-19T18:51:35.575Z,0.90
2018-02-19T18:54:03.032Z,1.00
2018-02-19T18:56:30.493Z,0.80
2018-02-19T18:58:57.947Z,0.60
2018-02-19T19:01:25.393Z,0.40
2018-02-19T19:03:53.345Z,0.30
2018-02-19T19:06:21.243Z,0.10
2018-02-19T19:09:00.783Z,0.10
2018-02-19T19:11:28.344Z,0.00
2018-02-19T19:13:55.799Z,-0.20
2018-02-19T19:16:23.258Z,-0.30
2018-02-19T19:18:50.715Z,-0.40
2018-02-19T19:21:18.176Z,-0.50
2018-02-19T19:23:45.724Z,-0.70
2018-02-19T19:26:13.178Z,-0.80
2018-02-19T19:28:40.627Z,-0.80
2018-02-19T19:31:08.089Z,-0.90
2018-02-19T19:33:35.536Z,-0.90
2018-02-19T19:36:03.027Z,-0.90
2018-02-19T19:38:30.463Z,-0.90
2018-02-19T19:40:57.924Z,-0.80
2018-02-19T19:43:25.574Z,-0.80
2018-02-19T19:45:53.387Z,-0.70
2018-02-19T19:48:21.620Z,-0.70
2018-02-19T19:50:49.079Z,-0.80
2018-02-19T19:53:17.252Z,-0.70
2018-02-19T19:55:44.726Z,-0.70
2018-02-19T19:58:12.174Z,-0.70
2018-02-19T20:00:39.674Z,-0.70
2018-02-19T20:03:07.104Z,-0.60
2018-02-19T20:05:34.560Z,-0.60
2018-02-19T20:08:02.095Z,-0.60
2018-02-19T20:10:29.651Z,-0.60
2018-02-19T20:12:57.108Z,-0.60
2018-02-19T20:15:25.079Z,-0.70
2018-02-19T20:17:52.545Z,-0.80
2018-02-19T20:20:19.991Z,-0.80
2018-02-19T20:22:47.534Z,-0.80
2018-02-19T20:25:14.979Z,-0.90
2018-02-19T20:27:42.463Z,-1.00
2018-02-19T20:30:09.916Z,-1.10
2018-02-19T20:32:37.379Z,-1.20
2018-02-19T20:35:04.847Z,-1.30
2018-02-19T20:37:32.313Z,-1.30
2018-02-19T20:39:59.759Z,-1.30
2018-02-19T20:42:27.314Z,-1.40
2018-02-19T20:44:55.588Z,-1.40
2018-02-19T20:47:23.039Z,-1.40
2018-02-19T20:49:50.595Z,-1.50
2018-02-19T20:52:18.067Z,-1.50
2018-02-19T20:54:45.611Z,-1.50
2018-02-19T20:57:13.071Z,-1.50
2018-02-19T20:59:40.528Z,-1.50
2018-02-19T21:02:07.988Z,-1.50
2018-02-19T21:04:35.550Z,-1.60
2018-02-19T21:07:03.805Z,-1.60
2018-02-19T21:09:31.252Z,-1.60
2018-02-19T21:11:58.810Z,-1.60
2018-02-19T21:14:26.293Z,-1.50
2018-02-19T21:16:53.750Z,-1.50
2018-02-19T21:19:21.207Z,-1.60
2018-02-19T21:21:48.976Z,-1.60
2018-02-19T21:24:17.380Z,-1.60
2018-02-19T21:26:45.626Z,-1.40
2018-02-19T21:29:13.083Z,-1.40
2018-02-19T21:31:40.615Z,-1.30
2018-02-19T21:34:08.096Z,-1.30
2018-02-19T21:36:35.559Z,-1.30
2018-02-19T21:39:03.015Z,-1.20
2018-02-19T21:41:30.874Z,-1.20
2018-02-19T21:43:58.430Z,-1.20
2018-02-19T21:46:25.991Z,-1.10
2018-02-19T21:48:53.468Z,-1.10
2018-02-19T21:51:20.915Z,-1.20
2018-02-19T21:53:48.372Z,-1.20
2018-02-19T21:56:15.924Z,-1.20
2018-02-19T21:58:43.479Z,-1.30
2018-02-19T22:01:11.086Z,-1.20
2018-02-19T22:03:39.310Z,-1.20
2018-02-19T22:06:06.760Z,-1.20
2018-02-19T22:08:34.219Z,-1.20
2018-02-19T22:11:01.663Z,-1.20
2018-02-19T22:13:29.119Z,-1.20
2018-02-19T22:15:56.573Z,-1.10
2018-02-19T22:18:24.028Z,-1.10
2018-02-19T22:20:51.720Z,-1.10
2018-02-19T22:23:19.274Z,-1.00
2018-02-19T22:25:46.736Z,-1.00
2018-02-19T22:28:14.295Z,-1.00
2018-02-19T22:30:41.742Z,-0.90
2018-02-19T22:33:09.195Z,-0.90
2018-02-19T22:35:36.642Z,-0.90
2018-02-19T22:38:04.102Z,-0.80
2018-02-19T22:40:31.555Z,-0.70
2018-02-19T22:42:59.544Z,-0.70
2018-02-19T22:45:27.793Z,-0.60
2018-02-19T22:47:55.279Z,-0.60
2018-02-19T22:50:23.484Z,-0.60
2018-02-19T22:52:50.942Z,-0.50
2018-02-19T22:55:18.470Z,-0.40
2018-02-19T22:57:46.343Z,-0.50
2018-02-19T23:00:14.302Z,-0.40
2018-02-19T23:02:42.254Z,-0.50
2018-02-19T23:05:09.706Z,-0.50
2018-02-19T23:07:37.167Z,-0.60
2018-02-19T23:10:04.640Z,-0.60
2018-02-19T23:12:32.199Z,-0.50
2018-02-19T23:14:59.859Z,-0.50
2018-02-19T23:17:27.320Z,-0.50
2018-02-19T23:19:54.907Z,-0.50
2018-02-19T23:22:23.154Z,-0.50
2018-02-19T23:24:50.607Z,-0.60
2018-02-19T23:27:18.563Z,-0.60
2018-02-19T23:29:46.035Z,-0.60
2018-02-19T23:32:14.100Z,-0.70
2018-02-19T23:34:41.767Z,-0.60
2018-02-19T23:37:09.224Z,-0.60
2018-02-19T23:39:36.783Z,-0.70
2018-02-19T23:42:04.241Z,-0.70
2018-02-19T23:44:31.695Z,-0.60
2018-02-19T23:47:00.606Z,-0.50
2018-02-19T23:49:28.068Z,-0.50
2018-02-19T23:51:55.519Z,-0.40
2018-02-19T23:54:23.059Z,-0.30
2018-02-19T23:56:51.233Z,-0.20
2018-02-19T23:59:18.896Z,-0.20
